Time;durP1;ratioP1;P1;durP2;ratioP2;P2;SDS_P1;SDS_P2;PMS_P1;PMS_P2;Temp;Humidity;BMP_temperature;BMP_pressure;BME280_temperature;BME280_humidity;BME280_pressure;Samples;Min_cycle;Max_cycle;Signal;HPM_P1;HPM_P2
2022/06/13 00:00:29;;;;;;;2.08;0.70;;;18.40;63.00;;;;;;5046229;28;20436;-69
2022/06/13 00:02:57;;;;;;;1.75;0.57;;;18.40;63.00;;;;;;5053501;28;20056;-71
2022/06/13 00:05:24;;;;;;;0.65;0.47;;;18.40;63.00;;;;;;5050496;28;20059;-70
2022/06/13 00:07:51;;;;;;;2.28;0.85;;;18.30;63.10;;;;;;5053461;28;20041;-72
2022/06/13 00:10:19;;;;;;;2.05;0.63;;;18.30;62.90;;;;;;5050391;28;20051;-72
2022/06/13 00:12:47;;;;;;;2.47;0.60;;;18.30;63.00;;;;;;5051027;28;20082;-69
2022/06/13 00:15:16;;;;;;;1.45;0.50;;;18.30;63.00;;;;;;5049160;28;20505;-73
2022/06/13 00:17:43;;;;;;;2.43;0.40;;;18.20;63.00;;;;;;5050465;28;20045;-68
2022/06/13 00:20:11;;;;;;;1.77;0.55;;;18.20;63.10;;;;;;5053946;28;20470;-71
2022/06/13 00:22:38;;;;;;;1.52;0.57;;;18.20;63.20;;;;;;5054767;28;20481;-69
2022/06/13 00:25:06;;;;;;;2.53;0.60;;;18.20;63.40;;;;;;5056661;28;20056;-71
2022/06/13 00:27:34;;;;;;;1.08;0.50;;;18.10;63.40;;;;;;5050675;28;20049;-74
2022/06/13 00:30:03;;;;;;;2.58;0.55;;;18.10;63.60;;;;;;5047654;28;20068;-68
2022/06/13 00:32:30;;;;;;;1.67;0.63;;;18.10;63.60;;;;;;5050766;28;20403;-70
2022/06/13 00:34:57;;;;;;;1.95;0.55;;;18.10;63.60;;;;;;5049846;28;20048;-68
2022/06/13 00:37:24;;;;;;;1.27;0.50;;;18.10;63.70;;;;;;5051793;28;20056;-73
2022/06/13 00:39:51;;;;;;;3.05;0.70;;;18.00;63.70;;;;;;5050389;28;20059;-70
2022/06/13 00:42:20;;;;;;;2.42;1.25;;;17.90;63.90;;;;;;5056216;28;20412;-74
2022/06/13 00:47:44;;;;;;;1.23;0.52;;;17.90;64.00;;;;;;5055718;27;20619;-71
2022/06/13 00:50:16;;;;;;;4.65;0.75;;;17.80;64.20;;;;;;5055925;28;20065;-72
2022/06/13 00:52:47;;;;;;;1.35;0.45;;;17.80;64.10;;;;;;5055975;28;20048;-71
2022/06/13 00:55:19;;;;;;;1.40;0.40;;;17.80;64.10;;;;;;5056031;28;20055;-72
2022/06/13 00:57:46;;;;;;;3.65;0.50;;;17.90;64.00;;;;;;5056414;28;20503;-71
2022/06/13 01:00:16;;;;;;;2.50;0.73;;;17.80;63.90;;;;;;5055882;28;20055;-69
2022/06/13 01:02:48;;;;;;;2.33;0.80;;;17.70;63.80;;;;;;5056101;28;20041;-69
2022/06/13 01:05:19;;;;;;;2.60;0.90;;;17.70;63.90;;;;;;5057138;28;20553;-73
2022/06/13 01:07:47;;;;;;;1.77;0.57;;;17.70;63.80;;;;;;5056207;28;20065;-73
2022/06/13 01:12:59;;;;;;;1.17;0.50;;;17.70;64.00;;;;;;5058487;28;20586;-70
2022/06/13 01:15:45;;;;;;;2.00;0.50;;;17.60;63.80;;;;;;5061533;28;20037;-69
2022/06/13 01:18:34;;;;;;;2.65;0.50;;;17.60;63.90;;;;;;5061471;28;20083;-72
2022/06/13 01:21:13;;;;;;;1.98;0.70;;;17.60;64.00;;;;;;5057840;28;21325;-70
2022/06/13 01:24:21;;;;;;;1.65;0.65;;;17.50;64.10;;;;;;5055167;28;20398;-71
2022/06/13 01:27:11;;;;;;;1.90;0.50;;;17.40;64.20;;;;;;5060635;28;20048;-69
2022/06/13 01:29:52;;;;;;;3.58;0.80;;;17.40;64.30;;;;;;5060667;28;20123;-71
2022/06/13 01:32:51;;;;;;;2.05;0.70;;;17.40;64.20;;;;;;5060450;28;20435;-72
2022/06/13 01:35:31;;;;;;;2.63;0.82;;;17.40;64.30;;;;;;5066636;28;20133;-73
2022/06/13 01:38:07;;;;;;;2.87;0.70;;;17.40;64.40;;;;;;5065718;28;20119;-72
2022/06/13 01:40:45;;;;;;;1.13;0.63;;;17.40;64.40;;;;;;5063105;28;20057;-67
2022/06/13 01:43:19;;;;;;;1.63;0.70;;;17.30;64.50;;;;;;5060550;28;20056;-74
2022/06/13 01:45:49;;;;;;;1.27;0.50;;;17.20;64.80;;;;;;5059276;28;20622;-71
2022/06/13 01:48:31;;;;;;;1.48;0.60;;;17.10;65.00;;;;;;5058599;28;20056;-70
2022/06/13 01:51:05;;;;;;;2.17;0.70;;;17.10;65.10;;;;;;5058340;28;20048;-69
2022/06/13 01:53:43;;;;;;;2.08;0.60;;;17.10;65.10;;;;;;5061133;28;20179;-69
2022/06/13 01:56:12;;;;;;;2.58;0.63;;;17.10;65.10;;;;;;5062586;28;20044;-70
2022/06/13 01:58:45;;;;;;;2.10;0.40;;;17.00;65.10;;;;;;5047390;28;20178;-71
2022/06/13 02:01:22;;;;;;;1.00;0.60;;;17.00;65.10;;;;;;5045320;28;20065;-70
2022/06/13 02:03:59;;;;;;;2.83;0.70;;;17.00;65.30;;;;;;5044014;28;20053;-71
2022/06/13 02:06:30;;;;;;;2.05;0.60;;;17.00;65.40;;;;;;5046917;28;20040;-70
2022/06/13 02:09:00;;;;;;;2.88;0.63;;;16.90;65.50;;;;;;5049716;28;20073;-71
2022/06/13 02:11:32;;;;;;;3.10;0.82;;;16.80;65.70;;;;;;5043748;28;20048;-71
2022/06/13 02:14:06;;;;;;;1.63;0.65;;;16.90;65.80;;;;;;5049627;28;20094;-72
2022/06/13 02:16:38;;;;;;;3.40;1.27;;;16.80;65.90;;;;;;5050177;28;20050;-70
2022/06/13 02:19:15;;;;;;;2.08;0.70;;;16.70;66.00;;;;;;5044707;28;20044;-67
2022/06/13 02:21:46;;;;;;;2.95;0.65;;;16.80;66.10;;;;;;5045315;28;20195;-72
2022/06/13 02:24:18;;;;;;;2.35;0.70;;;16.70;66.20;;;;;;5050827;28;20220;-70
2022/06/13 02:26:49;;;;;;;2.67;0.80;;;16.70;66.30;;;;;;5047896;28;20046;-72
2022/06/13 02:29:19;;;;;;;2.53;0.70;;;16.70;66.40;;;;;;5046745;28;20044;-71
2022/06/13 02:31:50;;;;;;;2.47;0.85;;;16.70;66.20;;;;;;5043994;28;20393;-72
2022/06/13 02:34:23;;;;;;;1.58;0.88;;;16.70;66.20;;;;;;5047532;28;20049;-67
2022/06/13 02:36:55;;;;;;;1.77;0.77;;;16.70;66.30;;;;;;5047474;28;20049;-70
2022/06/13 02:39:28;;;;;;;3.72;0.85;;;16.60;66.70;;;;;;5045848;28;20049;-70
2022/06/13 02:42:00;;;;;;;1.85;0.60;;;16.50;66.80;;;;;;5044713;28;20423;-71
2022/06/13 02:44:33;;;;;;;2.13;0.70;;;16.50;67.00;;;;;;5050830;28;20052;-69
2022/06/13 02:47:05;;;;;;;3.47;1.20;;;16.40;67.20;;;;;;5043858;28;20412;-71
2022/06/13 02:49:38;;;;;;;1.85;0.70;;;16.40;67.10;;;;;;5045521;28;20511;-71
2022/06/13 02:52:13;;;;;;;2.92;0.70;;;16.30;67.20;;;;;;5042252;28;20051;-68
2022/06/13 02:54:48;;;;;;;2.47;1.02;;;16.40;67.30;;;;;;5064759;28;20048;-72
2022/06/13 02:57:34;;;;;;;2.45;0.73;;;16.30;67.10;;;;;;5044898;28;20077;-70
2022/06/13 03:00:26;;;;;;;2.63;0.73;;;16.30;67.20;;;;;;5047047;28;20041;-71
2022/06/13 03:03:12;;;;;;;2.75;0.80;;;16.30;67.50;;;;;;5045435;28;20052;-68
2022/06/13 03:05:47;;;;;;;2.33;0.60;;;16.40;67.40;;;;;;5048899;28;20451;-68
2022/06/13 03:08:48;;;;;;;2.03;0.95;;;16.30;67.60;;;;;;5052258;28;20055;-70
2022/06/13 03:11:33;;;;;;;1.92;0.60;;;16.40;67.40;;;;;;5046543;28;20047;-67
2022/06/13 03:14:12;;;;;;;1.38;0.68;;;16.40;67.30;;;;;;5047198;28;20093;-72
2022/06/13 03:16:45;;;;;;;2.35;1.00;;;16.40;67.30;;;;;;5050357;28;20048;-68
2022/06/13 03:19:16;;;;;;;2.28;1.20;;;16.30;67.30;;;;;;5051499;28;20055;-70
2022/06/13 03:21:49;;;;;;;3.08;0.80;;;16.30;67.20;;;;;;5044307;28;20052;-69
2022/06/13 03:24:20;;;;;;;4.68;0.73;;;16.30;67.60;;;;;;5045783;28;20041;-70
2022/06/13 03:26:52;;;;;;;4.85;1.70;;;16.30;67.60;;;;;;5043169;28;20566;-71
2022/06/13 03:29:24;;;;;;;1.70;0.90;;;16.20;67.70;;;;;;5043166;28;20049;-72
2022/06/13 03:31:55;;;;;;;1.85;0.70;;;16.20;67.80;;;;;;5044599;28;20123;-71
2022/06/13 03:34:26;;;;;;;1.52;0.80;;;16.20;67.80;;;;;;5043962;28;20043;-69
2022/06/13 03:36:58;;;;;;;2.20;0.80;;;16.10;68.00;;;;;;5045663;28;20052;-71
2022/06/13 03:39:29;;;;;;;5.22;0.90;;;16.00;68.30;;;;;;5044417;28;20045;-70
2022/06/13 03:42:02;;;;;;;1.00;0.60;;;16.00;68.40;;;;;;5048149;28;20416;-71
2022/06/13 03:44:33;;;;;;;3.40;1.15;;;16.00;68.40;;;;;;5040396;28;20530;-70
2022/06/13 03:47:07;;;;;;;2.63;1.02;;;16.10;68.40;;;;;;5048020;28;20044;-69
2022/06/13 03:49:37;;;;;;;1.23;0.70;;;16.00;68.40;;;;;;5041798;28;20449;-72
2022/06/13 03:52:12;;;;;;;1.98;0.90;;;16.00;68.40;;;;;;5046575;28;20069;-70
2022/06/13 03:54:44;;;;;;;1.40;0.60;;;16.10;68.30;;;;;;5040896;28;20425;-72
2022/06/13 03:57:17;;;;;;;2.97;0.77;;;16.00;68.50;;;;;;5044359;28;20055;-72
2022/06/13 03:59:48;;;;;;;2.42;0.98;;;16.10;68.70;;;;;;5050028;28;20051;-68
2022/06/13 04:02:19;;;;;;;1.70;1.10;;;16.10;68.70;;;;;;5046376;28;20582;-71
2022/06/13 04:04:49;;;;;;;4.05;1.10;;;16.10;68.70;;;;;;5047267;28;20424;-69
2022/06/13 04:07:18;;;;;;;3.65;0.95;;;16.20;68.60;;;;;;5067932;28;20048;-70
2022/06/13 04:09:49;;;;;;;4.32;1.25;;;16.20;68.60;;;;;;5051828;28;20053;-68
2022/06/13 04:12:38;;;;;;;2.45;0.90;;;16.30;68.40;;;;;;5041781;28;20059;-70
2022/06/13 04:15:31;;;;;;;3.00;0.83;;;16.30;68.30;;;;;;5046252;28;20094;-72
2022/06/13 04:18:06;;;;;;;3.85;1.08;;;16.30;68.30;;;;;;5045646;28;20493;-72
2022/06/13 04:20:43;;;;;;;3.17;1.10;;;16.30;68.20;;;;;;5045427;28;20131;-72
2022/06/13 04:23:21;;;;;;;3.63;1.20;;;16.30;68.20;;;;;;5054769;28;20508;-67
2022/06/13 04:25:53;;;;;;;2.90;1.33;;;16.30;68.20;;;;;;5052458;28;20053;-71
2022/06/13 04:28:29;;;;;;;1.58;0.85;;;16.30;68.20;;;;;;5050637;28;20052;-73
2022/06/13 04:30:58;;;;;;;1.83;1.00;;;16.30;68.20;;;;;;5050949;28;20070;-70
2022/06/13 04:33:30;;;;;;;3.67;0.90;;;16.30;68.00;;;;;;5050605;28;20052;-72
2022/06/13 04:35:59;;;;;;;2.72;1.13;;;16.30;68.00;;;;;;5049087;28;20044;-68
2022/06/13 04:38:29;;;;;;;2.30;0.82;;;16.30;68.10;;;;;;5032565;28;20041;-70
2022/06/13 04:41:00;;;;;;;4.00;0.98;;;16.40;68.30;;;;;;5048106;28;20044;-70
2022/06/13 04:43:37;;;;;;;2.78;1.15;;;16.40;68.20;;;;;;5047360;28;20040;-70
2022/06/13 04:46:09;;;;;;;1.88;1.05;;;16.40;68.20;;;;;;5058329;28;20049;-67
2022/06/13 04:48:38;;;;;;;6.10;0.93;;;16.40;68.20;;;;;;5057427;28;20153;-71
2022/06/13 04:51:11;;;;;;;1.25;0.93;;;16.50;68.30;;;;;;5053943;28;20049;-72
2022/06/13 04:53:48;;;;;;;1.80;0.90;;;16.50;68.80;;;;;;5051421;28;20060;-69
2022/06/13 04:56:15;;;;;;;4.15;1.00;;;16.50;69.10;;;;;;5054662;28;20053;-71
2022/06/13 04:58:44;;;;;;;3.05;1.50;;;16.50;69.30;;;;;;5052705;28;20555;-71
2022/06/13 05:01:16;;;;;;;5.65;1.30;;;16.50;69.50;;;;;;5049951;28;20064;-70
2022/06/13 05:03:47;;;;;;;3.65;1.10;;;16.50;69.60;;;;;;5054715;28;20300;-70
2022/06/13 05:06:23;;;;;;;2.20;1.15;;;16.50;69.70;;;;;;5052503;28;20045;-74
2022/06/13 05:08:57;;;;;;;3.40;1.15;;;16.60;69.90;;;;;;5054736;28;20048;-70
2022/06/13 05:11:27;;;;;;;4.95;1.67;;;16.60;69.80;;;;;;5051269;28;20404;-71
2022/06/13 05:13:59;;;;;;;3.58;1.52;;;16.60;69.70;;;;;;5048336;28;20056;-74
2022/06/13 05:16:36;;;;;;;3.17;1.08;;;16.60;69.80;;;;;;5043521;28;20053;-71
2022/06/13 05:19:17;;;;;;;5.68;1.38;;;16.70;69.80;;;;;;5048216;28;20056;-71
2022/06/13 05:21:56;;;;;;;3.78;1.17;;;16.70;69.90;;;;;;5048130;28;20076;-72
2022/06/13 05:24:50;;;;;;;3.13;1.40;;;16.70;69.80;;;;;;5047996;28;20041;-71
2022/06/13 05:27:17;;;;;;;3.35;1.45;;;16.70;69.70;;;;;;5047146;28;20048;-69
2022/06/13 05:29:44;;;;;;;2.15;0.73;;;16.70;69.70;;;;;;5048886;28;20456;-67
2022/06/13 05:32:14;;;;;;;2.75;1.30;;;16.70;69.50;;;;;;5050747;28;20532;-70
2022/06/13 05:34:43;;;;;;;2.40;1.10;;;16.70;69.30;;;;;;5058392;28;20055;-70
2022/06/13 05:37:13;;;;;;;3.67;1.00;;;16.70;69.10;;;;;;5058049;28;20451;-72
2022/06/13 05:39:42;;;;;;;6.25;1.27;;;16.70;69.20;;;;;;5057363;28;21022;-68
2022/06/13 05:42:12;;;;;;;1.88;1.10;;;16.60;69.20;;;;;;5058716;28;20126;-71
2022/06/13 05:44:39;;;;;;;;;;;16.70;69.40;;;;;;5059213;28;20181;-69
2022/06/13 05:47:08;;;;;;;2.63;1.20;;;16.60;69.50;;;;;;5058858;28;20019;-68
2022/06/13 05:49:36;;;;;;;4.43;1.40;;;16.70;69.50;;;;;;5058316;28;20052;-69
2022/06/13 05:52:03;;;;;;;6.40;1.27;;;16.60;69.40;;;;;;5058117;28;20044;-68
2022/06/13 05:54:30;;;;;;;2.97;1.30;;;16.70;69.40;;;;;;5056830;28;20063;-70
2022/06/13 05:56:59;;;;;;;1.85;1.13;;;16.70;69.20;;;;;;5058462;28;20452;-70
2022/06/13 05:59:26;;;;;;;2.13;1.23;;;16.70;69.00;;;;;;5059055;28;20589;-70
2022/06/13 06:01:53;;;;;;;3.72;1.17;;;16.80;68.70;;;;;;5054465;28;20045;-69
2022/06/13 06:04:20;;;;;;;4.95;1.48;;;16.90;68.70;;;;;;5058380;28;20152;-72
2022/06/13 06:06:47;;;;;;;4.25;1.63;;;16.80;68.60;;;;;;5058595;28;20074;-66
2022/06/13 06:09:16;;;;;;;6.72;1.65;;;16.90;68.20;;;;;;5058539;28;20044;-72
2022/06/13 06:11:43;;;;;;;6.93;1.95;;;16.90;68.10;;;;;;5059011;28;20045;-71
2022/06/13 06:14:14;;;;;;;5.28;1.67;;;17.00;67.70;;;;;;5054653;28;20036;-70
2022/06/13 06:16:41;;;;;;;3.83;1.30;;;17.10;67.20;;;;;;5057544;28;20532;-73
2022/06/13 06:19:08;;;;;;;7.05;2.28;;;17.10;66.90;;;;;;5058373;28;20136;-70
2022/06/13 06:21:35;;;;;;;7.20;1.60;;;17.10;67.20;;;;;;5058391;28;20140;-70
2022/06/13 06:24:02;;;;;;;5.32;1.30;;;17.10;67.40;;;;;;5057898;28;20052;-67
2022/06/13 06:26:29;;;;;;;3.17;1.42;;;17.20;67.30;;;;;;5059156;28;20147;-69
2022/06/13 06:28:57;;;;;;;4.97;1.58;;;17.20;67.50;;;;;;5056135;28;20527;-71
2022/06/13 06:31:25;;;;;;;4.30;1.63;;;17.30;67.20;;;;;;5055738;28;20140;-70
2022/06/13 06:33:52;;;;;;;3.67;1.17;;;17.40;66.90;;;;;;5050637;28;20508;-71
2022/06/13 06:36:20;;;;;;;6.07;1.90;;;17.60;66.20;;;;;;5045275;28;20587;-71
2022/06/13 06:38:47;;;;;;;3.25;1.02;;;17.70;65.20;;;;;;5045609;28;20052;-72
2022/06/13 06:41:14;;;;;;;4.47;1.45;;;17.90;64.80;;;;;;5047158;28;20056;-71
2022/06/13 06:43:42;;;;;;;4.40;1.00;;;18.10;64.70;;;;;;5046574;28;20040;-71
2022/06/13 06:46:09;;;;;;;6.65;1.15;;;18.20;63.10;;;;;;5045257;28;20056;-70
2022/06/13 06:48:38;;;;;;;5.47;1.48;;;18.30;62.60;;;;;;5046580;28;20595;-71
2022/06/13 06:51:07;;;;;;;2.05;0.80;;;18.50;62.10;;;;;;5041004;28;20049;-70
2022/06/13 07:01:44;;;;;;;2.45;0.80;;;19.10;59.00;;;;;;5041498;28;20064;-69
2022/06/13 07:04:13;;;;;;;6.53;1.17;;;19.30;59.20;;;;;;5043143;28;20227;-71
2022/06/13 07:06:40;;;;;;;6.53;1.52;;;19.40;57.80;;;;;;5046390;28;20106;-68
2022/06/13 07:09:07;;;;;;;2.97;0.77;;;19.50;58.30;;;;;;5034039;28;20041;-71
2022/06/13 07:14:20;;;;;;;3.95;0.82;;;19.80;57.40;;;;;;5046893;28;20041;-71
2022/06/13 07:16:47;;;;;;;4.70;1.20;;;20.10;57.00;;;;;;5045897;28;20235;-72
2022/06/13 07:19:16;;;;;;;2.42;0.80;;;20.10;56.20;;;;;;5057575;28;20650;-73
2022/06/13 07:21:43;;;;;;;3.22;0.85;;;20.30;55.90;;;;;;5053108;28;20045;-71
2022/06/13 07:24:11;;;;;;;3.08;0.88;;;20.40;55.80;;;;;;5049648;28;20099;-72
2022/06/13 07:26:38;;;;;;;2.70;0.73;;;20.60;55.40;;;;;;5044682;28;20044;-71
2022/06/13 07:29:06;;;;;;;7.80;1.17;;;20.70;53.10;;;;;;5048463;28;20063;-71
2022/06/13 07:31:37;;;;;;;4.45;1.15;;;20.80;54.30;;;;;;5047204;28;20045;-68
2022/06/13 07:34:05;;;;;;;3.65;1.10;;;21.00;52.80;;;;;;5047104;28;20056;-70
2022/06/13 07:36:34;;;;;;;6.60;0.77;;;21.10;52.40;;;;;;5044459;28;20059;-72
2022/06/13 07:39:01;;;;;;;3.28;1.13;;;21.30;51.50;;;;;;5048247;28;20053;-72
2022/06/13 07:41:28;;;;;;;3.25;0.80;;;21.40;51.50;;;;;;5048576;28;20140;-72
2022/06/13 07:43:57;;;;;;;3.45;0.70;;;21.60;51.80;;;;;;5045443;28;20068;-71
2022/06/13 07:46:27;;;;;;;6.60;0.90;;;21.60;52.50;;;;;;5046702;28;20052;-72
2022/06/13 07:48:54;;;;;;;2.92;0.82;;;21.60;52.00;;;;;;5042862;28;20054;-70
2022/06/13 07:51:23;;;;;;;3.03;0.57;;;21.80;52.90;;;;;;5044945;28;20041;-68
2022/06/13 07:53:52;;;;;;;4.97;0.90;;;21.90;51.10;;;;;;5044359;28;20036;-70
2022/06/13 07:56:22;;;;;;;4.57;0.83;;;22.10;50.50;;;;;;5049638;28;20051;-72
2022/06/13 07:58:49;;;;;;;;;;;22.10;49.90;;;;;;5046395;28;20467;-71
2022/06/13 08:01:18;;;;;;;2.38;0.80;;;22.30;49.20;;;;;;5046129;28;19924;-70
2022/06/13 08:03:45;;;;;;;2.20;0.80;;;22.40;49.90;;;;;;5049924;28;20231;-71
2022/06/13 08:06:13;;;;;;;3.65;0.63;;;22.50;49.30;;;;;;5048270;28;20048;-70
2022/06/13 08:08:40;;;;;;;6.57;1.08;;;22.60;47.70;;;;;;5047497;28;20046;-70
2022/06/13 08:11:10;;;;;;;1.27;0.70;;;22.60;47.50;;;;;;5044545;28;20036;-71
2022/06/13 08:13:39;;;;;;;4.22;0.90;;;22.70;47.10;;;;;;5045170;28;20040;-71
2022/06/13 08:16:07;;;;;;;3.67;0.90;;;22.90;48.30;;;;;;5044740;28;20421;-72
2022/06/13 08:18:34;;;;;;;4.15;0.75;;;22.90;46.90;;;;;;5045585;28;20044;-70
2022/06/13 08:21:01;;;;;;;3.08;1.00;;;23.00;46.60;;;;;;5028845;28;20053;-70
2022/06/13 08:23:29;;;;;;;5.05;1.17;;;23.00;45.80;;;;;;5043907;28;20158;-72
2022/06/13 08:25:56;;;;;;;2.70;0.70;;;23.10;46.80;;;;;;5044654;28;20075;-71
2022/06/13 08:28:24;;;;;;;2.10;0.90;;;23.20;46.50;;;;;;5044630;28;20049;-72
2022/06/13 08:30:54;;;;;;;3.47;0.70;;;23.40;47.30;;;;;;5041826;28;20550;-71
2022/06/13 08:33:21;;;;;;;;;;;23.40;47.00;;;;;;5045956;28;20048;-70
2022/06/13 08:35:49;;;;;;;4.78;0.75;;;23.40;45.20;;;;;;5044427;28;20379;-70
2022/06/13 08:38:17;;;;;;;5.90;1.00;;;23.30;44.70;;;;;;5045446;28;20555;-71
2022/06/13 08:40:51;;;;;;;2.33;0.75;;;23.20;44.40;;;;;;5045092;28;20059;-71
2022/06/13 08:43:36;;;;;;;3.60;0.82;;;23.20;43.20;;;;;;5046014;28;20048;-68
2022/06/13 08:46:11;;;;;;;1.90;0.75;;;23.10;43.80;;;;;;5046522;28;20095;-73
2022/06/13 08:48:41;;;;;;;2.17;0.80;;;23.30;46.80;;;;;;5044706;28;20056;-72
2022/06/13 08:51:11;;;;;;;2.22;0.60;;;23.40;46.40;;;;;;5043964;28;20513;-70
2022/06/13 08:53:48;;;;;;;3.38;0.93;;;23.50;46.00;;;;;;5043966;28;20069;-73
2022/06/13 08:56:18;;;;;;;3.05;0.80;;;23.60;47.30;;;;;;5047951;28;20045;-72
2022/06/13 08:58:53;;;;;;;3.38;0.95;;;23.70;47.00;;;;;;5046783;28;20496;-69
2022/06/13 09:01:26;;;;;;;4.15;0.77;;;23.70;45.10;;;;;;5044057;28;20055;-71
2022/06/13 09:04:00;;;;;;;2.58;0.70;;;23.80;45.10;;;;;;5046909;28;20051;-72
2022/06/13 09:06:34;;;;;;;3.25;0.70;;;23.80;45.40;;;;;;5048895;28;20137;-73
2022/06/13 09:09:08;;;;;;;6.15;1.00;;;23.80;44.40;;;;;;5044971;28;20052;-69
2022/06/13 09:11:42;;;;;;;2.55;0.70;;;23.80;44.20;;;;;;5049625;28;20041;-73
2022/06/13 09:14:17;;;;;;;2.88;0.95;;;23.80;43.40;;;;;;5052188;28;21354;-73
2022/06/13 09:16:50;;;;;;;4.13;0.70;;;23.90;45.80;;;;;;5048966;28;20063;-72
2022/06/13 09:19:22;;;;;;;2.47;0.80;;;24.00;45.30;;;;;;5052199;28;20529;-73
2022/06/13 09:21:53;;;;;;;1.92;0.68;;;24.10;45.50;;;;;;5049133;28;20057;-72
2022/06/13 09:24:27;;;;;;;3.35;0.80;;;24.10;43.70;;;;;;5048872;28;20040;-73
2022/06/13 09:27:00;;;;;;;4.82;1.10;;;24.10;44.10;;;;;;5048497;28;20048;-70
2022/06/13 09:29:35;;;;;;;5.65;1.05;;;24.10;43.90;;;;;;5052571;28;20064;-70
2022/06/13 09:32:11;;;;;;;7.63;0.93;;;23.80;42.30;;;;;;5052197;28;20119;-74
2022/06/13 09:34:42;;;;;;;5.47;1.05;;;23.60;42.30;;;;;;5053036;28;20410;-69
2022/06/13 09:37:12;;;;;;;3.20;1.17;;;23.60;42.70;;;;;;5049906;28;20049;-67
2022/06/13 09:39:40;;;;;;;4.85;1.00;;;23.60;43.00;;;;;;5048689;28;20765;-72
2022/06/13 09:42:47;;;;;;;6.65;1.63;;;23.60;43.50;;;;;;5050462;28;20137;-73
2022/06/13 09:45:30;;;;;;;4.80;1.42;;;23.70;43.60;;;;;;4974565;28;20943;-73
2022/06/13 09:48:08;;;;;;;2.95;1.10;;;23.70;43.40;;;;;;4975625;28;20046;-71
2022/06/13 09:50:44;;;;;;;3.85;1.05;;;23.70;43.30;;;;;;5023484;28;20049;-69
2022/06/13 09:53:16;;;;;;;4.65;0.95;;;23.70;43.50;;;;;;5049127;28;20527;-75
2022/06/13 09:55:49;;;;;;;2.88;0.80;;;23.70;44.20;;;;;;5044797;28;20048;-70
2022/06/13 09:58:22;;;;;;;2.78;1.30;;;23.80;45.60;;;;;;5048761;28;20055;-72
2022/06/13 10:01:03;;;;;;;4.13;1.55;;;23.80;43.90;;;;;;5048441;28;20099;-72
2022/06/13 10:03:41;;;;;;;2.45;0.93;;;23.90;42.90;;;;;;5049352;28;20053;-68
2022/06/13 10:06:16;;;;;;;3.60;0.95;;;23.80;42.90;;;;;;5050291;28;20067;-68
2022/06/13 10:08:57;;;;;;;2.58;0.98;;;23.80;42.30;;;;;;5046218;28;20485;-71
2022/06/13 10:11:35;;;;;;;3.65;1.42;;;23.70;42.80;;;;;;5040727;28;20110;-71
2022/06/13 10:14:24;;;;;;;5.30;1.10;;;23.60;43.30;;;;;;5048094;28;21641;-71
2022/06/13 10:17:06;;;;;;;2.22;0.80;;;23.60;43.40;;;;;;5048686;28;20553;-71
2022/06/13 10:19:47;;;;;;;4.05;1.65;;;23.40;42.10;;;;;;5043810;28;20107;-69
2022/06/13 10:22:20;;;;;;;4.97;1.02;;;23.30;42.80;;;;;;5046791;28;20077;-70
2022/06/13 10:24:59;;;;;;;2.47;0.70;;;23.40;42.10;;;;;;5044332;28;20052;-72
2022/06/13 10:27:39;;;;;;;7.28;1.25;;;23.50;41.90;;;;;;5046953;28;20041;-71
2022/06/13 10:30:20;;;;;;;3.40;1.25;;;23.60;41.50;;;;;;5048792;28;20051;-69
2022/06/13 10:33:13;;;;;;;3.28;1.05;;;23.60;41.30;;;;;;5047736;28;20056;-71
2022/06/13 10:35:50;;;;;;;5.93;0.50;;;23.80;41.40;;;;;;5046658;28;20603;-74
2022/06/13 10:38:37;;;;;;;4.60;1.25;;;23.90;42.60;;;;;;5049657;28;20053;-68
2022/06/13 10:41:04;;;;;;;3.50;0.85;;;24.10;43.40;;;;;;5051463;28;20045;-70
2022/06/13 10:43:32;;;;;;;2.22;0.95;;;24.30;45.00;;;;;;5047423;28;20052;-72
2022/06/13 10:45:59;;;;;;;5.30;1.05;;;24.30;44.20;;;;;;5042001;28;20049;-72
2022/06/13 10:48:34;;;;;;;3.50;1.00;;;24.30;43.50;;;;;;5045101;28;20744;-73
2022/06/13 10:51:04;;;;;;;2.33;0.90;;;24.40;43.30;;;;;;5044952;28;20518;-69
2022/06/13 10:53:38;;;;;;;5.53;1.33;;;24.40;43.00;;;;;;5048054;28;21399;-71
2022/06/13 10:56:09;;;;;;;4.07;0.80;;;24.40;43.40;;;;;;5048282;28;20051;-71
2022/06/13 10:58:40;;;;;;;5.03;0.95;;;24.40;41.90;;;;;;5050433;28;20396;-75
2022/06/13 11:01:12;;;;;;;3.05;0.80;;;24.20;40.90;;;;;;5049509;28;20072;-72
2022/06/13 11:03:44;;;;;;;7.45;1.23;;;24.10;40.90;;;;;;5048206;28;20497;-68
2022/06/13 11:06:23;;;;;;;2.80;0.90;;;23.90;40.40;;;;;;5051041;28;20067;-69
2022/06/13 11:08:59;;;;;;;4.90;1.10;;;23.60;40.60;;;;;;5043770;28;20134;-69
2022/06/13 11:11:32;;;;;;;4.05;1.02;;;23.40;42.90;;;;;;5045214;28;20045;-70
2022/06/13 11:13:59;;;;;;;7.43;0.90;;;23.00;44.60;;;;;;5046694;28;20124;-72
2022/06/13 11:25:12;;;;;;;3.03;1.20;;;22.60;49.30;;;;;;5045242;28;20048;-71
2022/06/13 11:27:41;;;;;;;6.47;1.00;;;22.40;49.90;;;;;;5049180;28;20059;-71
2022/06/13 11:30:38;;;;;;;3.83;1.17;;;22.50;50.10;;;;;;5045822;28;20044;-72
2022/06/13 11:33:08;;;;;;;3.42;1.05;;;22.60;50.60;;;;;;5048381;28;20457;-67
2022/06/13 11:35:41;;;;;;;3.38;0.98;;;22.60;51.20;;;;;;5045511;28;20075;-71
2022/06/13 11:38:19;;;;;;;4.55;1.30;;;22.80;50.80;;;;;;5044160;28;20080;-71
2022/06/13 11:40:48;;;;;;;2.97;1.20;;;22.90;50.80;;;;;;5041536;28;20544;-71
2022/06/13 11:43:24;;;;;;;3.85;1.15;;;23.10;50.40;;;;;;5042312;28;20495;-71
2022/06/13 11:45:59;;;;;;;2.40;1.10;;;23.20;49.40;;;;;;5046802;28;20053;-71
2022/06/13 11:48:26;;;;;;;4.75;1.13;;;23.30;49.00;;;;;;5043126;28;20060;-70
2022/06/13 11:50:59;;;;;;;2.58;0.80;;;23.30;48.40;;;;;;5049241;28;20040;-72
2022/06/13 11:53:37;;;;;;;4.03;1.10;;;23.30;48.60;;;;;;5064357;28;20140;-71
2022/06/13 11:56:08;;;;;;;3.70;1.00;;;23.40;48.60;;;;;;5050221;28;20044;-70
2022/06/13 11:58:40;;;;;;;3.72;0.98;;;23.40;47.90;;;;;;5047806;28;20826;-67
2022/06/13 12:01:19;;;;;;;3.47;1.10;;;23.50;47.00;;;;;;5046153;28;20040;-71
2022/06/13 12:04:01;;;;;;;3.00;1.00;;;23.50;46.90;;;;;;5044858;28;20090;-70
2022/06/13 12:06:35;;;;;;;4.50;1.17;;;23.60;46.80;;;;;;5046683;28;20055;-69
2022/06/13 12:09:12;;;;;;;2.85;1.20;;;23.60;46.90;;;;;;5047008;28;20040;-72
2022/06/13 12:11:58;;;;;;;3.15;1.20;;;23.70;46.80;;;;;;5040133;28;20060;-72
2022/06/13 12:14:35;;;;;;;2.70;1.50;;;23.70;47.00;;;;;;5051583;28;20408;-70
2022/06/13 12:17:08;;;;;;;3.65;1.77;;;23.80;46.50;;;;;;5041088;28;20075;-70
2022/06/13 12:19:40;;;;;;;4.82;1.10;;;23.90;46.70;;;;;;5059572;28;20087;-72
2022/06/13 12:22:16;;;;;;;3.45;1.30;;;24.00;46.90;;;;;;5057474;28;20062;-68
2022/06/13 12:24:59;;;;;;;2.17;1.02;;;24.00;46.70;;;;;;5058383;28;20455;-72
2022/06/13 12:27:36;;;;;;;3.15;1.52;;;24.00;44.90;;;;;;5057012;28;20033;-72
2022/06/13 12:30:18;;;;;;;4.72;1.25;;;24.00;45.30;;;;;;5057397;28;20040;-70
2022/06/13 12:32:49;;;;;;;4.30;1.48;;;24.00;45.30;;;;;;5057726;28;20060;-71
2022/06/13 12:35:33;;;;;;;4.28;1.55;;;24.00;44.20;;;;;;5057094;28;20048;-72
2022/06/13 12:38:12;;;;;;;5.10;1.55;;;23.90;44.30;;;;;;5058217;28;20119;-68
2022/06/13 12:40:53;;;;;;;4.57;1.52;;;23.80;44.50;;;;;;5055952;28;20171;-72
2022/06/13 12:43:51;;;;;;;4.68;1.50;;;23.90;44.40;;;;;;5041160;28;20108;-70
2022/06/13 12:46:37;;;;;;;5.10;2.03;;;23.90;44.20;;;;;;5056169;28;20510;-71
2022/06/13 12:49:19;;;;;;;6.15;1.77;;;24.00;44.70;;;;;;5057547;28;20044;-71
2022/06/13 12:51:57;;;;;;;3.35;1.35;;;24.00;43.50;;;;;;5056155;28;20059;-69
2022/06/13 12:54:50;;;;;;;3.80;1.42;;;24.10;43.60;;;;;;5054909;28;20040;-72
2022/06/13 12:57:36;;;;;;;5.40;1.58;;;24.10;44.10;;;;;;5058635;28;20049;-71
2022/06/13 13:00:14;;;;;;;3.70;1.50;;;24.10;43.90;;;;;;5051814;28;20041;-72
2022/06/13 13:03:02;;;;;;;7.82;1.70;;;24.10;43.70;;;;;;5057417;28;20048;-71
2022/06/13 13:05:38;;;;;;;3.08;1.27;;;24.10;43.50;;;;;;5055678;28;20056;-71
2022/06/13 13:08:15;;;;;;;7.40;1.67;;;24.00;43.70;;;;;;5056859;28;20496;-72
2022/06/13 13:11:02;;;;;;;5.05;1.73;;;23.80;42.30;;;;;;5048976;28;20063;-69
2022/06/13 13:13:46;;;;;;;4.43;1.30;;;23.80;42.10;;;;;;5054927;28;20128;-68
2022/06/13 13:16:20;;;;;;;6.18;2.15;;;23.80;43.40;;;;;;5054669;28;20048;-70
2022/06/13 13:18:57;;;;;;;4.28;1.30;;;23.80;43.00;;;;;;5056740;28;20060;-69
2022/06/13 13:21:30;;;;;;;4.38;1.80;;;23.80;43.00;;;;;;5048626;28;20047;-75
2022/06/13 13:24:07;;;;;;;5.32;1.50;;;23.80;43.20;;;;;;5053240;28;20095;-72
2022/06/13 13:26:49;;;;;;;4.10;1.55;;;23.70;43.20;;;;;;5063357;28;20101;-69
2022/06/13 13:29:26;;;;;;;5.68;1.70;;;23.90;44.10;;;;;;5050388;28;20040;-70
2022/06/13 13:32:01;;;;;;;4.78;1.67;;;24.00;45.50;;;;;;5049098;28;20052;-71
2022/06/13 13:34:38;;;;;;;4.65;1.60;;;24.00;44.50;;;;;;5039930;28;20049;-71
2022/06/13 13:37:21;;;;;;;6.00;2.10;;;24.00;44.40;;;;;;5049077;28;20057;-70
2022/06/13 13:39:58;;;;;;;4.90;1.67;;;24.00;43.40;;;;;;5054841;28;20135;-72
2022/06/13 13:42:34;;;;;;;3.72;1.50;;;24.10;43.20;;;;;;5050597;28;20037;-71
2022/06/13 13:45:04;;;;;;;3.63;2.05;;;24.10;43.40;;;;;;5069415;28;20051;-73